sensor_id;sensor_type;location;lat;lon;timestamp;pressure;altitude;pressure_sealevel;temperature;humidity
78685;BME280;68002;52.310;6.990;2023-05-28T00:02:15;101764.09;;;12.41;63.50
78685;BME280;68002;52.310;6.990;2023-05-28T00:04:41;101768.97;;;12.47;64.67
78685;BME280;68002;52.310;6.990;2023-05-28T00:07:06;101761.16;;;12.44;64.43
78685;BME280;68002;52.310;6.990;2023-05-28T00:09:31;101752.53;;;12.40;64.22
78685;BME280;68002;52.310;6.990;2023-05-28T00:11:56;101756.19;;;12.39;63.95
78685;BME280;68002;52.310;6.990;2023-05-28T00:14:22;101761.69;;;12.38;64.43
78685;BME280;68002;52.310;6.990;2023-05-28T00:16:47;101748.66;;;12.33;64.75
78685;BME280;68002;52.310;6.990;2023-05-28T00:19:12;101760.38;;;12.32;65.35
78685;BME280;68002;52.310;6.990;2023-05-28T00:21:37;101756.59;;;12.24;65.43
78685;BME280;68002;52.310;6.990;2023-05-28T00:24:03;101755.88;;;12.22;65.13
78685;BME280;68002;52.310;6.990;2023-05-28T00:26:29;101764.31;;;12.17;66.03
78685;BME280;68002;52.310;6.990;2023-05-28T00:28:54;101761.50;;;12.19;66.60
78685;BME280;68002;52.310;6.990;2023-05-28T00:31:19;101754.69;;;12.14;66.91
78685;BME280;68002;52.310;6.990;2023-05-28T00:33:45;101749.31;;;12.14;68.01
78685;BME280;68002;52.310;6.990;2023-05-28T00:36:12;101733.25;;;12.03;68.09
78685;BME280;68002;52.310;6.990;2023-05-28T00:38:37;101740.81;;;12.09;67.81
78685;BME280;68002;52.310;6.990;2023-05-28T00:41:03;101750.81;;;12.07;67.76
78685;BME280;68002;52.310;6.990;2023-05-28T00:43:28;101752.53;;;12.08;67.75
78685;BME280;68002;52.310;6.990;2023-05-28T00:45:56;101749.13;;;12.06;68.31
78685;BME280;68002;52.310;6.990;2023-05-28T00:48:23;101744.97;;;12.02;68.45
78685;BME280;68002;52.310;6.990;2023-05-28T00:50:48;101750.59;;;11.99;69.11
78685;BME280;68002;52.310;6.990;2023-05-28T00:53:14;101746.22;;;11.98;69.23
78685;BME280;68002;52.310;6.990;2023-05-28T00:55:39;101749.03;;;11.97;69.72
78685;BME280;68002;52.310;6.990;2023-05-28T00:58:04;101762.06;;;11.90;69.66
78685;BME280;68002;52.310;6.990;2023-05-28T01:00:30;101755.00;;;11.89;70.20
78685;BME280;68002;52.310;6.990;2023-05-28T01:02:55;101754.41;;;11.86;70.43
78685;BME280;68002;52.310;6.990;2023-05-28T01:05:20;101758.91;;;11.85;70.93
78685;BME280;68002;52.310;6.990;2023-05-28T01:07:46;101758.91;;;11.85;71.60
78685;BME280;68002;52.310;6.990;2023-05-28T01:10:11;101761.59;;;11.85;72.03
78685;BME280;68002;52.310;6.990;2023-05-28T01:12:37;101762.59;;;11.84;72.14
78685;BME280;68002;52.310;6.990;2023-05-28T01:15:03;101759.16;;;11.82;72.59
78685;BME280;68002;52.310;6.990;2023-05-28T01:17:29;101751.13;;;11.82;73.22
78685;BME280;68002;52.310;6.990;2023-05-28T01:19:55;101757.09;;;11.86;72.55
78685;BME280;68002;52.310;6.990;2023-05-28T01:22:25;101751.59;;;11.87;72.68
78685;BME280;68002;52.310;6.990;2023-05-28T01:24:53;101753.94;;;11.81;72.92
78685;BME280;68002;52.310;6.990;2023-05-28T01:27:19;101761.72;;;11.84;72.91
78685;BME280;68002;52.310;6.990;2023-05-28T01:29:44;101766.47;;;11.80;72.78
78685;BME280;68002;52.310;6.990;2023-05-28T01:32:09;101761.25;;;11.79;73.02
78685;BME280;68002;52.310;6.990;2023-05-28T01:34:35;101766.75;;;11.77;73.67
78685;BME280;68002;52.310;6.990;2023-05-28T01:37:06;101764.41;;;11.73;74.48
78685;BME280;68002;52.310;6.990;2023-05-28T01:39:36;101759.06;;;11.73;74.65
78685;BME280;68002;52.310;6.990;2023-05-28T01:42:03;101761.41;;;11.66;75.32
78685;BME280;68002;52.310;6.990;2023-05-28T01:44:29;101772.13;;;11.66;74.41
78685;BME280;68002;52.310;6.990;2023-05-28T01:46:56;101758.06;;;11.63;74.43
78685;BME280;68002;52.310;6.990;2023-05-28T01:49:22;101763.44;;;11.63;74.62
78685;BME280;68002;52.310;6.990;2023-05-28T01:51:47;101762.72;;;11.61;74.99
78685;BME280;68002;52.310;6.990;2023-05-28T01:54:13;101757.97;;;11.53;75.33
78685;BME280;68002;52.310;6.990;2023-05-28T01:56:38;101758.19;;;11.50;75.70
78685;BME280;68002;52.310;6.990;2023-05-28T01:59:03;101747.59;;;11.49;75.48
78685;BME280;68002;52.310;6.990;2023-05-28T02:01:30;101744.44;;;11.44;75.51
78685;BME280;68002;52.310;6.990;2023-05-28T02:03:56;101745.78;;;11.49;75.67
78685;BME280;68002;52.310;6.990;2023-05-28T02:06:23;101739.34;;;11.41;75.58
78685;BME280;68002;52.310;6.990;2023-05-28T02:08:48;101738.59;;;11.39;75.67
78685;BME280;68002;52.310;6.990;2023-05-28T02:11:14;101735.06;;;11.38;75.97
78685;BME280;68002;52.310;6.990;2023-05-28T02:13:39;101732.63;;;11.35;75.47
78685;BME280;68002;52.310;6.990;2023-05-28T02:16:04;101731.78;;;11.35;75.51
78685;BME280;68002;52.310;6.990;2023-05-28T02:18:29;101732.25;;;11.29;75.49
78685;BME280;68002;52.310;6.990;2023-05-28T02:20:55;101733.38;;;11.26;76.22
78685;BME280;68002;52.310;6.990;2023-05-28T02:23:20;101728.50;;;11.20;76.08
78685;BME280;68002;52.310;6.990;2023-05-28T02:25:45;101725.34;;;11.15;76.08
78685;BME280;68002;52.310;6.990;2023-05-28T02:28:10;101720.44;;;11.09;76.33
78685;BME280;68002;52.310;6.990;2023-05-28T02:30:35;101724.69;;;11.11;75.76
78685;BME280;68002;52.310;6.990;2023-05-28T02:33:01;101728.75;;;11.06;75.56
78685;BME280;68002;52.310;6.990;2023-05-28T02:35:26;101728.22;;;11.01;76.30
78685;BME280;68002;52.310;6.990;2023-05-28T02:37:51;101719.97;;;10.93;76.44
78685;BME280;68002;52.310;6.990;2023-05-28T02:40:16;101733.22;;;10.94;76.41
78685;BME280;68002;52.310;6.990;2023-05-28T02:42:42;101735.28;;;10.91;76.64
78685;BME280;68002;52.310;6.990;2023-05-28T02:45:07;101740.25;;;10.84;76.62
78685;BME280;68002;52.310;6.990;2023-05-28T02:47:32;101740.00;;;10.76;77.33
78685;BME280;68002;52.310;6.990;2023-05-28T02:49:58;101742.81;;;10.75;77.61
78685;BME280;68002;52.310;6.990;2023-05-28T02:52:23;101736.59;;;10.74;77.91
78685;BME280;68002;52.310;6.990;2023-05-28T02:54:48;101748.97;;;10.75;78.23
78685;BME280;68002;52.310;6.990;2023-05-28T02:57:13;101749.72;;;10.77;79.67
78685;BME280;68002;52.310;6.990;2023-05-28T02:59:39;101750.34;;;10.81;79.12
78685;BME280;68002;52.310;6.990;2023-05-28T03:02:04;101753.13;;;10.79;78.94
78685;BME280;68002;52.310;6.990;2023-05-28T03:04:29;101738.91;;;10.79;79.10
78685;BME280;68002;52.310;6.990;2023-05-28T03:06:54;101728.09;;;10.80;79.53
78685;BME280;68002;52.310;6.990;2023-05-28T03:09:19;101728.44;;;10.76;80.09
78685;BME280;68002;52.310;6.990;2023-05-28T03:11:45;101735.25;;;10.80;79.72
78685;BME280;68002;52.310;6.990;2023-05-28T03:14:10;101745.97;;;10.80;79.19
78685;BME280;68002;52.310;6.990;2023-05-28T03:16:35;101743.28;;;10.80;79.43
78685;BME280;68002;52.310;6.990;2023-05-28T03:19:00;101745.97;;;10.80;79.22
78685;BME280;68002;52.310;6.990;2023-05-28T03:21:25;101739.88;;;10.78;79.38
78685;BME280;68002;52.310;6.990;2023-05-28T03:23:51;101750.59;;;10.78;79.96
78685;BME280;68002;52.310;6.990;2023-05-28T03:26:16;101740.22;;;10.73;79.99
78685;BME280;68002;52.310;6.990;2023-05-28T03:28:41;101735.13;;;10.70;79.50
78685;BME280;68002;52.310;6.990;2023-05-28T03:31:06;101744.97;;;10.70;80.03
78685;BME280;68002;52.310;6.990;2023-05-28T03:33:31;101752.78;;;10.73;79.80
78685;BME280;68002;52.310;6.990;2023-05-28T03:35:57;101757.25;;;10.72;80.51
78685;BME280;68002;52.310;6.990;2023-05-28T03:38:22;101741.53;;;10.68;79.57
78685;BME280;68002;52.310;6.990;2023-05-28T03:40:47;101744.13;;;10.69;80.05
78685;BME280;68002;52.310;6.990;2023-05-28T03:43:12;101755.44;;;10.73;79.00
78685;BME280;68002;52.310;6.990;2023-05-28T03:45:38;101759.94;;;10.72;79.30
78685;BME280;68002;52.310;6.990;2023-05-28T03:48:03;101758.34;;;10.70;80.03
78685;BME280;68002;52.310;6.990;2023-05-28T03:50:28;101758.84;;;10.75;80.80
78685;BME280;68002;52.310;6.990;2023-05-28T03:52:53;101746.44;;;10.74;80.68
78685;BME280;68002;52.310;6.990;2023-05-28T03:55:19;101752.78;;;10.73;80.90
78685;BME280;68002;52.310;6.990;2023-05-28T03:57:44;101745.69;;;10.72;80.07
78685;BME280;68002;52.310;6.990;2023-05-28T04:00:10;101741.06;;;10.74;80.85
78685;BME280;68002;52.310;6.990;2023-05-28T04:02:35;101737.53;;;10.73;80.65
78685;BME280;68002;52.310;6.990;2023-05-28T04:05:00;101752.28;;;10.79;81.08
78685;BME280;68002;52.310;6.990;2023-05-28T04:07:25;101751.81;;;10.85;80.68
78685;BME280;68002;52.310;6.990;2023-05-28T04:09:51;101752.28;;;10.90;80.82
78685;BME280;68002;52.310;6.990;2023-05-28T04:12:16;101752.09;;;10.93;80.53
78685;BME280;68002;52.310;6.990;2023-05-28T04:14:41;101746.94;;;10.90;80.86
78685;BME280;68002;52.310;6.990;2023-05-28T04:17:07;101742.19;;;10.93;81.14
78685;BME280;68002;52.310;6.990;2023-05-28T04:19:33;101741.97;;;10.96;81.05
78685;BME280;68002;52.310;6.990;2023-05-28T04:21:58;101731.63;;;10.92;81.08
78685;BME280;68002;52.310;6.990;2023-05-28T04:24:23;101737.72;;;11.05;80.93
78685;BME280;68002;52.310;6.990;2023-05-28T04:26:49;101720.06;;;11.02;81.01
78685;BME280;68002;52.310;6.990;2023-05-28T04:29:14;101740.28;;;11.18;80.43
78685;BME280;68002;52.310;6.990;2023-05-28T04:31:39;101742.63;;;11.22;80.39
78685;BME280;68002;52.310;6.990;2023-05-28T04:34:04;101740.78;;;11.34;80.09
78685;BME280;68002;52.310;6.990;2023-05-28T04:36:29;101741.50;;;11.36;80.09
78685;BME280;68002;52.310;6.990;2023-05-28T04:38:55;101755.88;;;11.46;79.66
78685;BME280;68002;52.310;6.990;2023-05-28T04:41:21;101749.41;;;11.48;79.63
78685;BME280;68002;52.310;6.990;2023-05-28T04:43:46;101766.22;;;11.61;79.59
78685;BME280;68002;52.310;6.990;2023-05-28T04:46:11;101773.06;;;11.65;79.76
78685;BME280;68002;52.310;6.990;2023-05-28T04:48:36;101760.16;;;11.70;79.53
78685;BME280;68002;52.310;6.990;2023-05-28T04:51:01;101757.44;;;11.81;79.43
78685;BME280;68002;52.310;6.990;2023-05-28T04:53:27;101753.66;;;11.95;78.74
78685;BME280;68002;52.310;6.990;2023-05-28T04:55:52;101758.00;;;12.07;79.44
78685;BME280;68002;52.310;6.990;2023-05-28T04:58:17;101748.97;;;12.19;78.87
78685;BME280;68002;52.310;6.990;2023-05-28T05:00:42;101753.16;;;12.33;78.34
78685;BME280;68002;52.310;6.990;2023-05-28T05:03:08;101760.44;;;12.42;77.74
78685;BME280;68002;52.310;6.990;2023-05-28T05:05:33;101755.78;;;12.44;77.72
78685;BME280;68002;52.310;6.990;2023-05-28T05:07:59;101757.66;;;12.43;77.73
78685;BME280;68002;52.310;6.990;2023-05-28T05:10:24;101753.84;;;12.46;77.57
78685;BME280;68002;52.310;6.990;2023-05-28T05:12:49;101759.78;;;12.49;77.92
78685;BME280;68002;52.310;6.990;2023-05-28T05:15:14;101763.16;;;12.62;77.61
78685;BME280;68002;52.310;6.990;2023-05-28T05:17:39;101769.97;;;12.66;77.01
78685;BME280;68002;52.310;6.990;2023-05-28T05:20:05;101767.50;;;12.74;76.75
78685;BME280;68002;52.310;6.990;2023-05-28T05:22:31;101762.16;;;12.84;76.25
78685;BME280;68002;52.310;6.990;2023-05-28T05:24:56;101775.00;;;12.80;76.72
78685;BME280;68002;52.310;6.990;2023-05-28T05:27:22;101769.00;;;12.88;75.80
78685;BME280;68002;52.310;6.990;2023-05-28T05:29:47;101781.56;;;12.87;76.70
78685;BME280;68002;52.310;6.990;2023-05-28T05:32:12;101773.97;;;12.92;76.54
78685;BME280;68002;52.310;6.990;2023-05-28T05:34:37;101784.19;;;12.98;75.89
78685;BME280;68002;52.310;6.990;2023-05-28T05:37:03;101781.38;;;13.00;76.09
78685;BME280;68002;52.310;6.990;2023-05-28T05:39:28;101782.84;;;13.04;75.91
78685;BME280;68002;52.310;6.990;2023-05-28T05:41:54;101776.41;;;13.16;75.64
78685;BME280;68002;52.310;6.990;2023-05-28T05:44:20;101770.25;;;13.25;75.26
78685;BME280;68002;52.310;6.990;2023-05-28T05:46:45;101764.44;;;13.30;74.51
78685;BME280;68002;52.310;6.990;2023-05-28T05:49:10;101767.84;;;13.32;75.12
78685;BME280;68002;52.310;6.990;2023-05-28T05:51:35;101760.72;;;13.42;75.14
78685;BME280;68002;52.310;6.990;2023-05-28T05:54:02;101771.22;;;13.54;73.79
78685;BME280;68002;52.310;6.990;2023-05-28T05:56:27;101769.16;;;13.67;74.38
78685;BME280;68002;52.310;6.990;2023-05-28T05:58:52;101763.94;;;13.75;73.94
78685;BME280;68002;52.310;6.990;2023-05-28T06:01:19;101762.84;;;13.87;73.40
78685;BME280;68002;52.310;6.990;2023-05-28T06:03:45;101760.59;;;13.92;73.91
78685;BME280;68002;52.310;6.990;2023-05-28T06:06:10;101766.72;;;14.13;73.69
78685;BME280;68002;52.310;6.990;2023-05-28T06:08:35;101758.16;;;14.39;73.01
78685;BME280;68002;52.310;6.990;2023-05-28T06:11:01;101757.00;;;14.51;72.19
78685;BME280;68002;52.310;6.990;2023-05-28T06:13:26;101760.97;;;14.56;72.09
78685;BME280;68002;52.310;6.990;2023-05-28T06:15:51;101754.88;;;14.64;71.82
78685;BME280;68002;52.310;6.990;2023-05-28T06:18:16;101760.97;;;14.75;71.11
78685;BME280;68002;52.310;6.990;2023-05-28T06:20:42;101761.53;;;14.79;70.90
78685;BME280;68002;52.310;6.990;2023-05-28T06:23:07;101770.88;;;14.94;70.02
78685;BME280;68002;52.310;6.990;2023-05-28T06:25:32;101762.78;;;14.94;70.35
78685;BME280;68002;52.310;6.990;2023-05-28T06:27:57;101766.84;;;15.17;70.06
78685;BME280;68002;52.310;6.990;2023-05-28T06:30:22;101759.13;;;15.41;69.85
78685;BME280;68002;52.310;6.990;2023-05-28T06:32:48;101768.69;;;15.63;69.58
78685;BME280;68002;52.310;6.990;2023-05-28T06:35:13;101758.03;;;15.88;69.16
78685;BME280;68002;52.310;6.990;2023-05-28T06:37:38;101753.63;;;16.15;68.89
78685;BME280;68002;52.310;6.990;2023-05-28T06:40:04;101756.25;;;16.42;68.25
78685;BME280;68002;52.310;6.990;2023-05-28T06:42:29;101739.84;;;16.53;67.30
78685;BME280;68002;52.310;6.990;2023-05-28T06:44:54;101757.94;;;16.78;66.10
78685;BME280;68002;52.310;6.990;2023-05-28T06:47:19;101760.41;;;16.89;64.30
78685;BME280;68002;52.310;6.990;2023-05-28T06:49:45;101758.06;;;16.94;64.75
78685;BME280;68002;52.310;6.990;2023-05-28T06:52:10;101766.16;;;17.12;63.87
78685;BME280;68002;52.310;6.990;2023-05-28T06:54:35;101765.53;;;17.18;63.57
78685;BME280;68002;52.310;6.990;2023-05-28T06:57:00;101768.31;;;17.34;62.88
78685;BME280;68002;52.310;6.990;2023-05-28T06:59:25;101775.63;;;17.41;62.59
78685;BME280;68002;52.310;6.990;2023-05-28T07:01:51;101774.19;;;17.55;61.77
78685;BME280;68002;52.310;6.990;2023-05-28T07:04:16;101772.72;;;17.60;60.10
78685;BME280;68002;52.310;6.990;2023-05-28T07:06:41;101769.53;;;17.65;61.19
78685;BME280;68002;52.310;6.990;2023-05-28T07:09:06;101775.00;;;17.81;60.43
78685;BME280;68002;52.310;6.990;2023-05-28T07:11:32;101777.25;;;17.85;60.47
78685;BME280;68002;52.310;6.990;2023-05-28T07:13:57;101786.63;;;18.07;59.18
78685;BME280;68002;52.310;6.990;2023-05-28T07:16:22;101784.44;;;18.19;59.00
78685;BME280;68002;52.310;6.990;2023-05-28T07:18:48;101785.31;;;18.27;59.32
78685;BME280;68002;52.310;6.990;2023-05-28T07:21:13;101787.88;;;18.37;58.45
78685;BME280;68002;52.310;6.990;2023-05-28T07:23:38;101789.09;;;18.42;58.01
78685;BME280;68002;52.310;6.990;2023-05-28T07:26:03;101784.53;;;18.43;58.29
78685;BME280;68002;52.310;6.990;2023-05-28T07:28:29;101800.78;;;18.43;57.61
78685;BME280;68002;52.310;6.990;2023-05-28T07:30:54;101802.94;;;18.31;57.91
78685;BME280;68002;52.310;6.990;2023-05-28T07:33:19;101801.88;;;18.16;57.46
78685;BME280;68002;52.310;6.990;2023-05-28T07:35:45;101806.06;;;18.02;57.05
78685;BME280;68002;52.310;6.990;2023-05-28T07:38:10;101808.81;;;17.77;58.39
78685;BME280;68002;52.310;6.990;2023-05-28T07:40:35;101803.91;;;17.72;59.20
78685;BME280;68002;52.310;6.990;2023-05-28T07:43:00;101806.97;;;17.77;58.58
78685;BME280;68002;52.310;6.990;2023-05-28T07:45:26;101808.47;;;17.72;58.43
78685;BME280;68002;52.310;6.990;2023-05-28T07:47:51;101802.00;;;17.65;59.21
78685;BME280;68002;52.310;6.990;2023-05-28T07:50:16;101808.06;;;17.59;59.43
78685;BME280;68002;52.310;6.990;2023-05-28T07:52:41;101811.44;;;17.61;59.49
78685;BME280;68002;52.310;6.990;2023-05-28T07:55:07;101811.63;;;17.67;59.48
78685;BME280;68002;52.310;6.990;2023-05-28T07:57:32;101803.84;;;17.64;59.00
78685;BME280;68002;52.310;6.990;2023-05-28T07:59:57;101805.13;;;17.78;59.03
78685;BME280;68002;52.310;6.990;2023-05-28T08:02:23;101820.91;;;17.98;58.86
78685;BME280;68002;52.310;6.990;2023-05-28T08:04:48;101821.31;;;18.03;58.29
78685;BME280;68002;52.310;6.990;2023-05-28T08:07:14;101816.16;;;18.34;58.88
78685;BME280;68002;52.310;6.990;2023-05-28T08:09:39;101805.91;;;18.62;59.42
78685;BME280;68002;52.310;6.990;2023-05-28T08:12:05;101798.94;;;19.16;58.24
78685;BME280;68002;52.310;6.990;2023-05-28T08:14:30;101805.47;;;19.69;56.20
78685;BME280;68002;52.310;6.990;2023-05-28T08:16:55;101808.56;;;20.05;54.67
78685;BME280;68002;52.310;6.990;2023-05-28T08:19:20;101804.63;;;20.46;53.09
78685;BME280;68002;52.310;6.990;2023-05-28T08:21:45;101797.25;;;20.77;53.28
78685;BME280;68002;52.310;6.990;2023-05-28T08:24:11;101793.97;;;21.27;50.34
78685;BME280;68002;52.310;6.990;2023-05-28T08:26:38;101790.41;;;21.41;50.19
78685;BME280;68002;52.310;6.990;2023-05-28T08:29:03;101798.97;;;21.67;49.52
78685;BME280;68002;52.310;6.990;2023-05-28T08:31:29;101795.31;;;21.89;48.52
78685;BME280;68002;52.310;6.990;2023-05-28T08:33:54;101791.50;;;22.20;48.32
78685;BME280;68002;52.310;6.990;2023-05-28T08:36:20;101787.31;;;22.38;46.93
78685;BME280;68002;52.310;6.990;2023-05-28T08:38:45;101786.50;;;22.38;46.28
78685;BME280;68002;52.310;6.990;2023-05-28T08:41:11;101781.63;;;22.54;46.78
78685;BME280;68002;52.310;6.990;2023-05-28T08:43:37;101778.81;;;22.83;45.70
78685;BME280;68002;52.310;6.990;2023-05-28T08:46:03;101784.59;;;23.23;44.93
78685;BME280;68002;52.310;6.990;2023-05-28T08:48:32;101773.56;;;23.31;45.23
78685;BME280;68002;52.310;6.990;2023-05-28T08:50:58;101779.22;;;23.63;43.03
78685;BME280;68002;52.310;6.990;2023-05-28T08:53:25;101777.28;;;23.91;42.58
78685;BME280;68002;52.310;6.990;2023-05-28T08:55:51;101777.50;;;23.97;42.71
78685;BME280;68002;52.310;6.990;2023-05-28T08:58:17;101771.72;;;24.13;41.74
78685;BME280;68002;52.310;6.990;2023-05-28T09:00:42;101772.19;;;24.29;40.26
78685;BME280;68002;52.310;6.990;2023-05-28T09:03:07;101774.34;;;24.53;39.71
78685;BME280;68002;52.310;6.990;2023-05-28T09:05:36;101765.22;;;24.20;39.12
78685;BME280;68002;52.310;6.990;2023-05-28T09:08:05;101762.31;;;24.35;39.96
78685;BME280;68002;52.310;6.990;2023-05-28T09:10:31;101760.44;;;24.42;39.76
78685;BME280;68002;52.310;6.990;2023-05-28T09:12:58;101764.31;;;24.86;38.84
78685;BME280;68002;52.310;6.990;2023-05-28T09:15:24;101766.44;;;24.98;38.19
78685;BME280;68002;52.310;6.990;2023-05-28T09:17:49;101755.88;;;25.08;38.30
78685;BME280;68002;52.310;6.990;2023-05-28T09:20:15;101769.97;;;25.57;37.09
78685;BME280;68002;52.310;6.990;2023-05-28T09:22:40;101760.03;;;25.62;35.68
78685;BME280;68002;52.310;6.990;2023-05-28T09:25:06;101757.94;;;25.51;36.33
78685;BME280;68002;52.310;6.990;2023-05-28T09:27:32;101769.13;;;25.50;35.39
78685;BME280;68002;52.310;6.990;2023-05-28T09:30:04;101751.84;;;25.56;36.08
78685;BME280;68002;52.310;6.990;2023-05-28T09:32:33;101758.69;;;25.84;35.79
78685;BME280;68002;52.310;6.990;2023-05-28T09:34:58;101747.22;;;26.14;35.85
78685;BME280;68002;52.310;6.990;2023-05-28T09:37:23;101749.09;;;26.51;35.72
78685;BME280;68002;52.310;6.990;2023-05-28T09:39:59;101747.38;;;26.56;33.19
78685;BME280;68002;52.310;6.990;2023-05-28T09:42:25;101741.56;;;26.40;34.02
78685;BME280;68002;52.310;6.990;2023-05-28T09:44:50;101734.44;;;26.70;34.85
78685;BME280;68002;52.310;6.990;2023-05-28T09:47:17;101746.13;;;26.83;33.33
78685;BME280;68002;52.310;6.990;2023-05-28T09:49:43;101744.44;;;27.07;33.53
78685;BME280;68002;52.310;6.990;2023-05-28T09:52:16;101731.22;;;27.22;31.92
78685;BME280;68002;52.310;6.990;2023-05-28T09:54:43;101732.66;;;27.07;32.32
78685;BME280;68002;52.310;6.990;2023-05-28T09:57:11;101735.81;;;27.04;33.14
78685;BME280;68002;52.310;6.990;2023-05-28T09:59:38;101729.16;;;26.93;31.68
78685;BME280;68002;52.310;6.990;2023-05-28T10:02:19;101733.66;;;26.88;31.48
78685;BME280;68002;52.310;6.990;2023-05-28T10:04:54;101730.41;;;26.66;32.80
78685;BME280;68002;52.310;6.990;2023-05-28T10:07:24;101727.47;;;26.92;32.50
78685;BME280;68002;52.310;6.990;2023-05-28T10:09:50;101732.69;;;27.00;32.17
78685;BME280;68002;52.310;6.990;2023-05-28T10:12:21;101724.72;;;27.17;32.90
78685;BME280;68002;52.310;6.990;2023-05-28T10:14:49;101725.72;;;27.65;31.79
78685;BME280;68002;52.310;6.990;2023-05-28T10:17:16;101730.69;;;27.93;30.79
78685;BME280;68002;52.310;6.990;2023-05-28T10:19:44;101726.81;;;28.12;30.09
78685;BME280;68002;52.310;6.990;2023-05-28T10:22:09;101726.69;;;28.07;29.35
78685;BME280;68002;52.310;6.990;2023-05-28T10:24:35;101730.66;;;28.11;30.14
78685;BME280;68002;52.310;6.990;2023-05-28T10:27:04;101731.59;;;28.34;28.99
78685;BME280;68002;52.310;6.990;2023-05-28T10:29:37;101723.28;;;28.23;28.59
78685;BME280;68002;52.310;6.990;2023-05-28T10:32:04;101737.81;;;28.41;27.68
78685;BME280;68002;52.310;6.990;2023-05-28T10:34:31;101729.44;;;28.07;28.84
78685;BME280;68002;52.310;6.990;2023-05-28T10:36:56;101729.34;;;27.77;29.36
78685;BME280;68002;52.310;6.990;2023-05-28T10:39:21;101726.97;;;27.80;29.67
78685;BME280;68002;52.310;6.990;2023-05-28T10:41:48;101729.19;;;27.90;28.64
78685;BME280;68002;52.310;6.990;2023-05-28T10:44:14;101729.28;;;28.02;28.94
78685;BME280;68002;52.310;6.990;2023-05-28T10:46:39;101726.63;;;28.25;29.39
78685;BME280;68002;52.310;6.990;2023-05-28T10:49:13;101725.34;;;28.68;28.31
78685;BME280;68002;52.310;6.990;2023-05-28T10:52:02;101725.03;;;28.77;27.13
78685;BME280;68002;52.310;6.990;2023-05-28T11:02:28;101712.53;;;28.62;27.21
78685;BME280;68002;52.310;6.990;2023-05-28T11:04:55;101710.28;;;28.71;27.57
78685;BME280;68002;52.310;6.990;2023-05-28T11:07:22;101719.22;;;28.55;27.57
78685;BME280;68002;52.310;6.990;2023-05-28T11:09:49;101714.09;;;28.29;28.43
78685;BME280;68002;52.310;6.990;2023-05-28T11:12:14;101705.22;;;28.27;27.77
78685;BME280;68002;52.310;6.990;2023-05-28T11:14:40;101692.38;;;28.50;27.46
78685;BME280;68002;52.310;6.990;2023-05-28T11:17:13;101715.66;;;28.77;26.49
78685;BME280;68002;52.310;6.990;2023-05-28T11:19:46;101714.91;;;28.59;26.94
78685;BME280;68002;52.310;6.990;2023-05-28T11:22:13;101710.31;;;28.12;27.10
78685;BME280;68002;52.310;6.990;2023-05-28T11:24:58;101709.00;;;28.14;28.17
78685;BME280;68002;52.310;6.990;2023-05-28T11:27:28;101708.44;;;28.53;27.47
78685;BME280;68002;52.310;6.990;2023-05-28T11:29:55;101709.47;;;29.05;26.12
78685;BME280;68002;52.310;6.990;2023-05-28T11:32:21;101704.59;;;29.19;25.99
78685;BME280;68002;52.310;6.990;2023-05-28T11:34:50;101710.28;;;28.83;26.47
78685;BME280;68002;52.310;6.990;2023-05-28T11:37:16;101705.84;;;28.82;26.79
78685;BME280;68002;52.310;6.990;2023-05-28T11:39:52;101704.34;;;29.20;25.97
78685;BME280;68002;52.310;6.990;2023-05-28T11:42:18;101703.13;;;28.93;26.10
78685;BME280;68002;52.310;6.990;2023-05-28T11:44:48;101701.09;;;29.00;26.66
78685;BME280;68002;52.310;6.990;2023-05-28T11:47:13;101708.63;;;28.93;26.01
78685;BME280;68002;52.310;6.990;2023-05-28T11:49:40;101701.94;;;29.24;25.70
78685;BME280;68002;52.310;6.990;2023-05-28T11:52:16;101708.13;;;29.54;25.81
78685;BME280;68002;52.310;6.990;2023-05-28T11:54:43;101695.34;;;29.25;26.01
78685;BME280;68002;52.310;6.990;2023-05-28T11:57:09;101698.19;;;29.53;25.53
78685;BME280;68002;52.310;6.990;2023-05-28T11:59:35;101699.22;;;29.63;24.39
78685;BME280;68002;52.310;6.990;2023-05-28T12:04:35;101707.38;;;29.82;22.97
78685;BME280;68002;52.310;6.990;2023-05-28T12:07:00;101696.31;;;30.21;22.74
78685;BME280;68002;52.310;6.990;2023-05-28T12:09:25;101686.66;;;30.35;22.56
78685;BME280;68002;52.310;6.990;2023-05-28T12:12:10;101686.69;;;29.96;23.14
78685;BME280;68002;52.310;6.990;2023-05-28T12:14:35;101686.78;;;30.01;23.18
78685;BME280;68002;52.310;6.990;2023-05-28T12:17:05;101692.66;;;30.04;23.05
78685;BME280;68002;52.310;6.990;2023-05-28T12:19:32;101686.19;;;29.99;23.19
78685;BME280;68002;52.310;6.990;2023-05-28T12:21:58;101683.41;;;29.70;24.33
78685;BME280;68002;52.310;6.990;2023-05-28T12:24:25;101679.78;;;30.10;23.77
78685;BME280;68002;52.310;6.990;2023-05-28T12:26:51;101680.94;;;30.25;21.78
78685;BME280;68002;52.310;6.990;2023-05-28T12:29:16;101682.38;;;30.00;22.98
78685;BME280;68002;52.310;6.990;2023-05-28T12:31:42;101686.28;;;29.76;24.25
78685;BME280;68002;52.310;6.990;2023-05-28T12:34:07;101681.19;;;29.44;23.71
78685;BME280;68002;52.310;6.990;2023-05-28T12:36:32;101666.56;;;29.44;23.76
78685;BME280;68002;52.310;6.990;2023-05-28T12:38:57;101673.03;;;29.89;23.28
78685;BME280;68002;52.310;6.990;2023-05-28T12:41:23;101676.84;;;30.28;23.18
78685;BME280;68002;52.310;6.990;2023-05-28T12:43:48;101678.97;;;30.54;22.37
78685;BME280;68002;52.310;6.990;2023-05-28T12:46:13;101676.25;;;30.26;22.53
78685;BME280;68002;52.310;6.990;2023-05-28T12:48:38;101669.28;;;30.23;22.78
78685;BME280;68002;52.310;6.990;2023-05-28T12:51:04;101667.72;;;30.44;22.43
78685;BME280;68002;52.310;6.990;2023-05-28T12:53:29;101659.56;;;30.65;23.18
78685;BME280;68002;52.310;6.990;2023-05-28T12:55:54;101669.91;;;30.75;22.77